sensor_id;sensor_type;location;lat;lon;timestamp;temperature;humidity
11894;DHT22;6006;49.696;8.662;2023-04-03T00:01:25;1.50;33.90
11894;DHT22;6006;49.696;8.662;2023-04-03T00:03:52;1.40;53.00
11894;DHT22;6006;49.696;8.662;2023-04-03T00:06:20;1.40;73.40
11894;DHT22;6006;49.696;8.662;2023-04-03T00:08:47;1.30;95.90
11894;DHT22;6006;49.696;8.662;2023-04-03T00:11:16;1.20;99.90
11894;DHT22;6006;49.696;8.662;2023-04-03T00:13:42;1.10;99.90
11894;DHT22;6006;49.696;8.662;2023-04-03T00:16:10;1.00;99.90
11894;DHT22;6006;49.696;8.662;2023-04-03T00:18:38;1.00;99.90
11894;DHT22;6006;49.696;8.662;2023-04-03T00:21:06;1.00;99.90
11894;DHT22;6006;49.696;8.662;2023-04-03T00:23:33;1.10;99.90
11894;DHT22;6006;49.696;8.662;2023-04-03T00:26:00;0.90;99.90
11894;DHT22;6006;49.696;8.662;2023-04-03T00:28:28;0.90;99.90
11894;DHT22;6006;49.696;8.662;2023-04-03T00:30:55;0.90;99.90
11894;DHT22;6006;49.696;8.662;2023-04-03T00:33:22;0.80;99.90
11894;DHT22;6006;49.696;8.662;2023-04-03T00:35:50;0.80;99.90
11894;DHT22;6006;49.696;8.662;2023-04-03T00:38:17;0.80;99.90
11894;DHT22;6006;49.696;8.662;2023-04-03T00:40:46;0.70;99.90
11894;DHT22;6006;49.696;8.662;2023-04-03T00:43:15;0.70;99.90
11894;DHT22;6006;49.696;8.662;2023-04-03T00:45:45;0.70;99.90
11894;DHT22;6006;49.696;8.662;2023-04-03T00:48:15;0.60;99.90
11894;DHT22;6006;49.696;8.662;2023-04-03T00:50:44;0.60;99.90
11894;DHT22;6006;49.696;8.662;2023-04-03T00:53:13;0.60;99.90
11894;DHT22;6006;49.696;8.662;2023-04-03T00:55:41;0.60;99.90
11894;DHT22;6006;49.696;8.662;2023-04-03T00:58:10;0.50;99.90
11894;DHT22;6006;49.696;8.662;2023-04-03T01:00:40;0.50;99.90
11894;DHT22;6006;49.696;8.662;2023-04-03T01:03:10;0.50;99.90
11894;DHT22;6006;49.696;8.662;2023-04-03T01:05:36;0.50;99.90
11894;DHT22;6006;49.696;8.662;2023-04-03T01:08:04;0.50;99.90
11894;DHT22;6006;49.696;8.662;2023-04-03T01:10:31;0.30;99.90
11894;DHT22;6006;49.696;8.662;2023-04-03T01:13:00;0.20;99.90
11894;DHT22;6006;49.696;8.662;2023-04-03T01:15:27;0.30;99.90
11894;DHT22;6006;49.696;8.662;2023-04-03T01:17:56;0.30;99.90
11894;DHT22;6006;49.696;8.662;2023-04-03T01:20:48;0.30;99.90
11894;DHT22;6006;49.696;8.662;2023-04-03T01:23:43;0.40;99.90
11894;DHT22;6006;49.696;8.662;2023-04-03T01:26:11;0.40;99.90
11894;DHT22;6006;49.696;8.662;2023-04-03T01:28:38;0.40;99.90
11894;DHT22;6006;49.696;8.662;2023-04-03T01:31:13;0.40;99.90
11894;DHT22;6006;49.696;8.662;2023-04-03T01:33:43;0.40;99.90
11894;DHT22;6006;49.696;8.662;2023-04-03T01:36:13;0.40;99.90
11894;DHT22;6006;49.696;8.662;2023-04-03T01:38:40;0.30;99.90
11894;DHT22;6006;49.696;8.662;2023-04-03T01:41:07;0.20;99.90
11894;DHT22;6006;49.696;8.662;2023-04-03T01:43:34;0.20;99.90
11894;DHT22;6006;49.696;8.662;2023-04-03T01:46:01;0.10;99.90
11894;DHT22;6006;49.696;8.662;2023-04-03T01:48:28;0.10;99.90
11894;DHT22;6006;49.696;8.662;2023-04-03T01:50:56;0.00;99.90
11894;DHT22;6006;49.696;8.662;2023-04-03T01:53:23;0.10;99.90
11894;DHT22;6006;49.696;8.662;2023-04-03T01:55:50;0.10;99.90
11894;DHT22;6006;49.696;8.662;2023-04-03T01:58:17;0.10;99.90
11894;DHT22;6006;49.696;8.662;2023-04-03T02:00:44;0.00;99.90
11894;DHT22;6006;49.696;8.662;2023-04-03T02:03:11;-0.10;99.90
11894;DHT22;6006;49.696;8.662;2023-04-03T02:05:38;-0.10;99.90
11894;DHT22;6006;49.696;8.662;2023-04-03T02:08:06;-0.10;99.90
11894;DHT22;6006;49.696;8.662;2023-04-03T02:10:33;-0.10;99.90
11894;DHT22;6006;49.696;8.662;2023-04-03T02:13:00;-0.10;99.90
11894;DHT22;6006;49.696;8.662;2023-04-03T02:15:27;-0.10;99.90
11894;DHT22;6006;49.696;8.662;2023-04-03T02:17:54;-0.10;99.90
11894;DHT22;6006;49.696;8.662;2023-04-03T02:20:20;-0.10;99.90
11894;DHT22;6006;49.696;8.662;2023-04-03T02:22:47;0.00;99.90
11894;DHT22;6006;49.696;8.662;2023-04-03T02:25:16;0.00;99.90
11894;DHT22;6006;49.696;8.662;2023-04-03T02:27:44;0.00;99.90
11894;DHT22;6006;49.696;8.662;2023-04-03T02:30:11;0.00;99.90
11894;DHT22;6006;49.696;8.662;2023-04-03T02:32:40;0.00;99.90
11894;DHT22;6006;49.696;8.662;2023-04-03T02:35:08;0.00;99.90
11894;DHT22;6006;49.696;8.662;2023-04-03T02:37:35;0.00;99.90
11894;DHT22;6006;49.696;8.662;2023-04-03T02:40:03;0.00;99.90
11894;DHT22;6006;49.696;8.662;2023-04-03T02:42:31;0.00;99.90
11894;DHT22;6006;49.696;8.662;2023-04-03T02:44:58;0.00;99.90
11894;DHT22;6006;49.696;8.662;2023-04-03T02:47:25;0.00;99.90
11894;DHT22;6006;49.696;8.662;2023-04-03T02:49:52;-0.10;99.90
11894;DHT22;6006;49.696;8.662;2023-04-03T02:52:20;-0.10;99.90
11894;DHT22;6006;49.696;8.662;2023-04-03T02:54:47;-0.10;99.90
11894;DHT22;6006;49.696;8.662;2023-04-03T02:57:13;-0.10;99.90
11894;DHT22;6006;49.696;8.662;2023-04-03T02:59:42;-0.10;99.90
11894;DHT22;6006;49.696;8.662;2023-04-03T03:02:10;-0.10;99.90
11894;DHT22;6006;49.696;8.662;2023-04-03T03:04:37;-0.20;99.90
11894;DHT22;6006;49.696;8.662;2023-04-03T03:07:04;-0.10;99.90
11894;DHT22;6006;49.696;8.662;2023-04-03T03:09:31;-0.10;99.90
11894;DHT22;6006;49.696;8.662;2023-04-03T03:11:58;-0.10;99.90
11894;DHT22;6006;49.696;8.662;2023-04-03T03:14:25;-0.10;99.90
11894;DHT22;6006;49.696;8.662;2023-04-03T03:16:53;-0.10;99.90
11894;DHT22;6006;49.696;8.662;2023-04-03T03:19:20;-0.20;99.90
11894;DHT22;6006;49.696;8.662;2023-04-03T03:21:47;-0.20;99.90
11894;DHT22;6006;49.696;8.662;2023-04-03T03:24:14;-0.20;99.90
11894;DHT22;6006;49.696;8.662;2023-04-03T03:26:41;-0.20;99.90
11894;DHT22;6006;49.696;8.662;2023-04-03T03:29:08;-0.30;99.90
11894;DHT22;6006;49.696;8.662;2023-04-03T03:31:35;-0.30;99.90
11894;DHT22;6006;49.696;8.662;2023-04-03T03:34:03;-0.30;99.90
11894;DHT22;6006;49.696;8.662;2023-04-03T03:36:30;-0.30;99.90
11894;DHT22;6006;49.696;8.662;2023-04-03T03:38:57;-0.30;99.90
11894;DHT22;6006;49.696;8.662;2023-04-03T03:41:24;-0.40;99.90
11894;DHT22;6006;49.696;8.662;2023-04-03T03:43:50;-0.30;99.90
11894;DHT22;6006;49.696;8.662;2023-04-03T03:46:17;-0.30;99.90
11894;DHT22;6006;49.696;8.662;2023-04-03T03:48:44;-0.40;99.90
11894;DHT22;6006;49.696;8.662;2023-04-03T03:51:12;-0.40;99.90
11894;DHT22;6006;49.696;8.662;2023-04-03T03:53:39;-0.40;99.90
11894;DHT22;6006;49.696;8.662;2023-04-03T03:56:06;-0.40;99.90
11894;DHT22;6006;49.696;8.662;2023-04-03T03:58:33;-0.40;99.90
11894;DHT22;6006;49.696;8.662;2023-04-03T04:01:01;-0.40;99.90
11894;DHT22;6006;49.696;8.662;2023-04-03T04:03:28;-0.40;99.90
11894;DHT22;6006;49.696;8.662;2023-04-03T04:05:55;-0.40;99.90
11894;DHT22;6006;49.696;8.662;2023-04-03T04:08:24;-0.40;99.90
11894;DHT22;6006;49.696;8.662;2023-04-03T04:10:51;-0.50;99.90
11894;DHT22;6006;49.696;8.662;2023-04-03T04:13:18;-0.50;99.90
11894;DHT22;6006;49.696;8.662;2023-04-03T04:15:44;-0.50;99.90
11894;DHT22;6006;49.696;8.662;2023-04-03T04:18:11;-0.50;99.90
11894;DHT22;6006;49.696;8.662;2023-04-03T04:20:38;-0.50;99.90
11894;DHT22;6006;49.696;8.662;2023-04-03T04:23:05;-0.50;99.90
11894;DHT22;6006;49.696;8.662;2023-04-03T04:25:33;-0.50;99.90
11894;DHT22;6006;49.696;8.662;2023-04-03T04:28:00;-0.50;99.90
11894;DHT22;6006;49.696;8.662;2023-04-03T04:30:27;-0.50;99.90
11894;DHT22;6006;49.696;8.662;2023-04-03T04:32:54;-0.50;99.90
11894;DHT22;6006;49.696;8.662;2023-04-03T04:35:20;-0.50;99.90
11894;DHT22;6006;49.696;8.662;2023-04-03T04:37:47;-0.50;99.90
11894;DHT22;6006;49.696;8.662;2023-04-03T04:40:15;-0.50;99.90
11894;DHT22;6006;49.696;8.662;2023-04-03T04:42:43;-0.50;99.90
11894;DHT22;6006;49.696;8.662;2023-04-03T04:45:10;-0.40;99.90
11894;DHT22;6006;49.696;8.662;2023-04-03T04:47:37;-0.50;99.90
11894;DHT22;6006;49.696;8.662;2023-04-03T04:50:05;-0.50;99.90
11894;DHT22;6006;49.696;8.662;2023-04-03T04:52:32;-0.50;99.90
11894;DHT22;6006;49.696;8.662;2023-04-03T04:54:59;-0.50;99.90
11894;DHT22;6006;49.696;8.662;2023-04-03T04:57:26;-0.50;99.90
11894;DHT22;6006;49.696;8.662;2023-04-03T04:59:54;-0.60;99.90
11894;DHT22;6006;49.696;8.662;2023-04-03T05:02:21;-0.50;99.90
11894;DHT22;6006;49.696;8.662;2023-04-03T05:04:48;-0.60;99.90
11894;DHT22;6006;49.696;8.662;2023-04-03T05:07:17;-0.50;99.90
11894;DHT22;6006;49.696;8.662;2023-04-03T05:09:44;-0.50;99.90
11894;DHT22;6006;49.696;8.662;2023-04-03T05:12:11;-0.50;99.90
11894;DHT22;6006;49.696;8.662;2023-04-03T05:14:37;-0.50;99.90
11894;DHT22;6006;49.696;8.662;2023-04-03T05:17:06;-0.50;99.90
11894;DHT22;6006;49.696;8.662;2023-04-03T05:19:33;-0.50;99.90
11894;DHT22;6006;49.696;8.662;2023-04-03T05:21:59;-0.50;99.90
11894;DHT22;6006;49.696;8.662;2023-04-03T05:24:26;-0.50;99.90
11894;DHT22;6006;49.696;8.662;2023-04-03T05:26:53;-0.50;99.90
11894;DHT22;6006;49.696;8.662;2023-04-03T05:29:20;-0.40;99.90
11894;DHT22;6006;49.696;8.662;2023-04-03T05:31:48;-0.50;99.90
11894;DHT22;6006;49.696;8.662;2023-04-03T05:34:17;-0.40;99.90
11894;DHT22;6006;49.696;8.662;2023-04-03T05:36:44;-0.40;99.90
11894;DHT22;6006;49.696;8.662;2023-04-03T05:39:10;-0.40;99.90
11894;DHT22;6006;49.696;8.662;2023-04-03T05:41:37;-0.30;99.90
11894;DHT22;6006;49.696;8.662;2023-04-03T05:44:04;-0.30;99.90
11894;DHT22;6006;49.696;8.662;2023-04-03T05:46:31;-0.30;99.90
11894;DHT22;6006;49.696;8.662;2023-04-03T05:48:58;-0.10;99.90
11894;DHT22;6006;49.696;8.662;2023-04-03T05:51:30;0.20;99.90
11894;DHT22;6006;49.696;8.662;2023-04-03T05:54:04;0.60;99.90
11894;DHT22;6006;49.696;8.662;2023-04-03T05:56:32;0.80;99.90
11894;DHT22;6006;49.696;8.662;2023-04-03T05:58:59;0.90;99.90
11894;DHT22;6006;49.696;8.662;2023-04-03T06:01:26;0.80;99.90
11894;DHT22;6006;49.696;8.662;2023-04-03T06:03:53;0.80;99.90
11894;DHT22;6006;49.696;8.662;2023-04-03T06:06:21;0.70;99.90
11894;DHT22;6006;49.696;8.662;2023-04-03T06:08:49;0.70;99.90
11894;DHT22;6006;49.696;8.662;2023-04-03T06:11:16;0.80;99.90
11894;DHT22;6006;49.696;8.662;2023-04-03T06:13:43;1.20;99.90
11894;DHT22;6006;49.696;8.662;2023-04-03T06:16:12;1.60;99.90
11894;DHT22;6006;49.696;8.662;2023-04-03T06:18:40;1.80;99.90
11894;DHT22;6006;49.696;8.662;2023-04-03T06:21:07;2.00;99.90
11894;DHT22;6006;49.696;8.662;2023-04-03T06:23:34;2.10;99.90
11894;DHT22;6006;49.696;8.662;2023-04-03T06:26:03;2.40;99.90
11894;DHT22;6006;49.696;8.662;2023-04-03T06:28:31;2.50;99.90
11894;DHT22;6006;49.696;8.662;2023-04-03T06:30:58;2.60;99.90
11894;DHT22;6006;49.696;8.662;2023-04-03T06:33:24;2.60;99.90
11894;DHT22;6006;49.696;8.662;2023-04-03T06:35:56;2.70;99.90
11894;DHT22;6006;49.696;8.662;2023-04-03T06:38:23;2.80;99.90
11894;DHT22;6006;49.696;8.662;2023-04-03T06:40:50;2.90;99.90
11894;DHT22;6006;49.696;8.662;2023-04-03T06:43:19;3.00;99.90
11894;DHT22;6006;49.696;8.662;2023-04-03T06:45:46;3.20;99.90
11894;DHT22;6006;49.696;8.662;2023-04-03T06:48:13;3.40;99.90
11894;DHT22;6006;49.696;8.662;2023-04-03T06:50:41;3.50;99.90
11894;DHT22;6006;49.696;8.662;2023-04-03T06:53:08;3.50;99.90
11894;DHT22;6006;49.696;8.662;2023-04-03T06:55:35;3.60;99.90
11894;DHT22;6006;49.696;8.662;2023-04-03T06:58:03;3.80;81.00
11894;DHT22;6006;49.696;8.662;2023-04-03T07:00:31;3.80;1.00
11894;DHT22;6006;49.696;8.662;2023-04-03T07:02:59;3.70;1.00
11894;DHT22;6006;49.696;8.662;2023-04-03T07:05:26;3.70;23.20
11894;DHT22;6006;49.696;8.662;2023-04-03T07:07:53;4.00;1.00
11894;DHT22;6006;49.696;8.662;2023-04-03T07:10:20;4.40;1.00
11894;DHT22;6006;49.696;8.662;2023-04-03T07:12:46;5.10;1.00
11894;DHT22;6006;49.696;8.662;2023-04-03T07:15:13;5.40;99.90
11894;DHT22;6006;49.696;8.662;2023-04-03T07:17:42;5.80;99.90
11894;DHT22;6006;49.696;8.662;2023-04-03T07:20:10;6.30;99.90
11894;DHT22;6006;49.696;8.662;2023-04-03T07:22:37;6.70;1.00
11894;DHT22;6006;49.696;8.662;2023-04-03T07:25:05;7.20;99.90
11894;DHT22;6006;49.696;8.662;2023-04-03T07:27:33;7.60;1.00
11894;DHT22;6006;49.696;8.662;2023-04-03T07:29:59;7.50;1.00
11894;DHT22;6006;49.696;8.662;2023-04-03T07:32:26;7.50;1.00
11894;DHT22;6006;49.696;8.662;2023-04-03T07:34:54;7.20;1.00
11894;DHT22;6006;49.696;8.662;2023-04-03T07:37:21;7.00;1.00
11894;DHT22;6006;49.696;8.662;2023-04-03T07:39:48;6.70;1.00
11894;DHT22;6006;49.696;8.662;2023-04-03T07:42:16;6.50;1.00
11894;DHT22;6006;49.696;8.662;2023-04-03T07:44:43;6.20;27.30
11894;DHT22;6006;49.696;8.662;2023-04-03T07:47:10;6.00;99.90
11894;DHT22;6006;49.696;8.662;2023-04-03T07:49:37;6.30;99.90
11894;DHT22;6006;49.696;8.662;2023-04-03T07:52:07;6.70;1.00
11894;DHT22;6006;49.696;8.662;2023-04-03T07:54:35;6.90;1.00
11894;DHT22;6006;49.696;8.662;2023-04-03T07:57:02;6.80;99.90
11894;DHT22;6006;49.696;8.662;2023-04-03T07:59:29;6.80;99.90
11894;DHT22;6006;49.696;8.662;2023-04-03T08:01:56;6.90;99.90
11894;DHT22;6006;49.696;8.662;2023-04-03T08:04:23;7.20;99.90
11894;DHT22;6006;49.696;8.662;2023-04-03T08:06:50;7.50;99.90
11894;DHT22;6006;49.696;8.662;2023-04-03T08:09:19;7.40;99.90
11894;DHT22;6006;49.696;8.662;2023-04-03T08:11:45;7.30;99.90
11894;DHT22;6006;49.696;8.662;2023-04-03T08:14:13;7.60;99.90
11894;DHT22;6006;49.696;8.662;2023-04-03T08:16:45;7.50;99.90
11894;DHT22;6006;49.696;8.662;2023-04-03T08:19:12;7.50;99.90
11894;DHT22;6006;49.696;8.662;2023-04-03T08:21:40;7.70;99.90
11894;DHT22;6006;49.696;8.662;2023-04-03T08:24:08;8.00;99.90
11894;DHT22;6006;49.696;8.662;2023-04-03T08:26:36;8.20;99.90
11894;DHT22;6006;49.696;8.662;2023-04-03T08:29:03;8.40;99.90
11894;DHT22;6006;49.696;8.662;2023-04-03T08:31:30;8.70;99.90
11894;DHT22;6006;49.696;8.662;2023-04-03T08:33:57;8.70;99.90
11894;DHT22;6006;49.696;8.662;2023-04-03T08:36:26;8.80;99.90
11894;DHT22;6006;49.696;8.662;2023-04-03T08:38:53;9.10;99.90
11894;DHT22;6006;49.696;8.662;2023-04-03T08:41:27;9.20;99.90
11894;DHT22;6006;49.696;8.662;2023-04-03T08:44:02;9.50;99.90
11894;DHT22;6006;49.696;8.662;2023-04-03T08:46:40;9.80;99.90
11894;DHT22;6006;49.696;8.662;2023-04-03T08:49:13;9.70;99.90
11894;DHT22;6006;49.696;8.662;2023-04-03T08:51:46;9.20;99.90
11894;DHT22;6006;49.696;8.662;2023-04-03T08:54:22;8.80;99.90
11894;DHT22;6006;49.696;8.662;2023-04-03T08:56:51;8.30;99.90
11894;DHT22;6006;49.696;8.662;2023-04-03T08:59:26;8.20;99.90
11894;DHT22;6006;49.696;8.662;2023-04-03T09:01:56;8.10;99.90
11894;DHT22;6006;49.696;8.662;2023-04-03T09:04:26;8.00;99.90
11894;DHT22;6006;49.696;8.662;2023-04-03T09:06:57;7.70;99.90
11894;DHT22;6006;49.696;8.662;2023-04-03T09:09:32;7.50;99.90
11894;DHT22;6006;49.696;8.662;2023-04-03T09:12:06;7.50;99.90
11894;DHT22;6006;49.696;8.662;2023-04-03T09:14:39;7.70;99.90
11894;DHT22;6006;49.696;8.662;2023-04-03T09:17:13;7.50;99.90
11894;DHT22;6006;49.696;8.662;2023-04-03T09:19:49;7.60;99.90
11894;DHT22;6006;49.696;8.662;2023-04-03T09:22:24;8.00;99.90
11894;DHT22;6006;49.696;8.662;2023-04-03T09:24:56;8.10;99.90
11894;DHT22;6006;49.696;8.662;2023-04-03T09:27:24;8.30;99.90
11894;DHT22;6006;49.696;8.662;2023-04-03T09:29:55;9.00;99.90
11894;DHT22;6006;49.696;8.662;2023-04-03T09:32:27;9.00;99.90
11894;DHT22;6006;49.696;8.662;2023-04-03T09:34:56;8.90;99.90
11894;DHT22;6006;49.696;8.662;2023-04-03T09:37:39;8.40;99.90
11894;DHT22;6006;49.696;8.662;2023-04-03T09:40:36;8.30;99.90
11894;DHT22;6006;49.696;8.662;2023-04-03T09:43:19;8.00;99.90
11894;DHT22;6006;49.696;8.662;2023-04-03T09:45:48;7.90;99.90
11894;DHT22;6006;49.696;8.662;2023-04-03T09:48:18;7.70;99.90
11894;DHT22;6006;49.696;8.662;2023-04-03T09:50:59;7.80;99.90
11894;DHT22;6006;49.696;8.662;2023-04-03T09:53:33;7.60;99.90
11894;DHT22;6006;49.696;8.662;2023-04-03T09:56:03;7.50;99.90
11894;DHT22;6006;49.696;8.662;2023-04-03T09:58:32;7.40;99.90
11894;DHT22;6006;49.696;8.662;2023-04-03T10:01:01;7.50;99.90
11894;DHT22;6006;49.696;8.662;2023-04-03T10:03:30;7.50;99.90
11894;DHT22;6006;49.696;8.662;2023-04-03T10:05:58;7.70;99.90
11894;DHT22;6006;49.696;8.662;2023-04-03T10:08:28;8.10;99.90
11894;DHT22;6006;49.696;8.662;2023-04-03T10:11:10;8.30;99.90
11894;DHT22;6006;49.696;8.662;2023-04-03T10:13:49;8.20;99.90
11894;DHT22;6006;49.696;8.662;2023-04-03T10:16:18;8.30;99.90
11894;DHT22;6006;49.696;8.662;2023-04-03T10:18:52;9.10;99.90
11894;DHT22;6006;49.696;8.662;2023-04-03T10:21:32;10.50;99.90
11894;DHT22;6006;49.696;8.662;2023-04-03T10:24:08;11.30;99.90
11894;DHT22;6006;49.696;8.662;2023-04-03T10:26:45;10.60;99.90
11894;DHT22;6006;49.696;8.662;2023-04-03T10:29:22;9.90;99.90
11894;DHT22;6006;49.696;8.662;2023-04-03T10:31:55;9.30;99.90
11894;DHT22;6006;49.696;8.662;2023-04-03T10:34:25;9.20;99.90
11894;DHT22;6006;49.696;8.662;2023-04-03T10:37:01;9.10;99.90
11894;DHT22;6006;49.696;8.662;2023-04-03T10:39:34;8.60;99.90
11894;DHT22;6006;49.696;8.662;2023-04-03T10:42:09;8.20;99.90
11894;DHT22;6006;49.696;8.662;2023-04-03T10:44:48;8.00;99.90
11894;DHT22;6006;49.696;8.662;2023-04-03T10:47:21;8.10;99.90
11894;DHT22;6006;49.696;8.662;2023-04-03T10:49:56;8.20;99.90
11894;DHT22;6006;49.696;8.662;2023-04-03T10:52:33;8.40;99.90
11894;DHT22;6006;49.696;8.662;2023-04-03T10:55:13;8.40;99.90
11894;DHT22;6006;49.696;8.662;2023-04-03T10:57:45;8.10;99.90
11894;DHT22;6006;49.696;8.662;2023-04-03T11:00:17;8.00;99.90
11894;DHT22;6006;49.696;8.662;2023-04-03T11:02:49;8.20;99.90
11894;DHT22;6006;49.696;8.662;2023-04-03T11:05:25;8.20;99.90
11894;DHT22;6006;49.696;8.662;2023-04-03T11:07:55;8.30;99.90
11894;DHT22;6006;49.696;8.662;2023-04-03T11:10:29;8.60;99.90
11894;DHT22;6006;49.696;8.662;2023-04-03T11:13:07;8.90;99.90
11894;DHT22;6006;49.696;8.662;2023-04-03T11:15:34;9.20;99.90
11894;DHT22;6006;49.696;8.662;2023-04-03T11:18:04;9.30;99.90
11894;DHT22;6006;49.696;8.662;2023-04-03T11:20:33;9.20;99.90
11894;DHT22;6006;49.696;8.662;2023-04-03T11:23:04;8.90;99.90
11894;DHT22;6006;49.696;8.662;2023-04-03T11:25:33;9.60;99.90
11894;DHT22;6006;49.696;8.662;2023-04-03T11:28:04;10.00;99.90
11894;DHT22;6006;49.696;8.662;2023-04-03T11:30:45;10.20;99.90
11894;DHT22;6006;49.696;8.662;2023-04-03T11:33:21;9.60;99.90
11894;DHT22;6006;49.696;8.662;2023-04-03T11:35:55;9.00;99.90
11894;DHT22;6006;49.696;8.662;2023-04-03T11:38:28;8.70;99.90
11894;DHT22;6006;49.696;8.662;2023-04-03T11:40:57;8.40;99.90
11894;DHT22;6006;49.696;8.662;2023-04-03T11:43:28;8.40;99.90
11894;DHT22;6006;49.696;8.662;2023-04-03T11:45:58;8.40;99.90
11894;DHT22;6006;49.696;8.662;2023-04-03T11:48:48;8.70;99.90
11894;DHT22;6006;49.696;8.662;2023-04-03T11:51:42;8.60;99.90
11894;DHT22;6006;49.696;8.662;2023-04-03T11:54:44;8.40;99.90
11894;DHT22;6006;49.696;8.662;2023-04-03T11:57:44;8.10;99.90
11894;DHT22;6006;49.696;8.662;2023-04-03T12:00:51;8.00;99.90
11894;DHT22;6006;49.696;8.662;2023-04-03T12:07:01;8.30;99.90
11894;DHT22;6006;49.696;8.662;2023-04-03T12:09:52;8.70;99.90
11894;DHT22;6006;49.696;8.662;2023-04-03T12:12:25;9.00;99.90
11894;DHT22;6006;49.696;8.662;2023-04-03T12:14:54;10.10;99.90
11894;DHT22;6006;49.696;8.662;2023-04-03T12:17:26;11.50;99.90
11894;DHT22;6006;49.696;8.662;2023-04-03T12:19:54;11.50;99.90
11894;DHT22;6006;49.696;8.662;2023-04-03T12:22:21;10.80;99.90
11894;DHT22;6006;49.696;8.662;2023-04-03T12:24:50;10.50;99.90
11894;DHT22;6006;49.696;8.662;2023-04-03T12:27:28;9.80;99.90
11894;DHT22;6006;49.696;8.662;2023-04-03T12:30:04;9.20;99.90
11894;DHT22;6006;49.696;8.662;2023-04-03T12:32:46;8.70;99.90
11894;DHT22;6006;49.696;8.662;2023-04-03T12:35:24;8.90;99.90
11894;DHT22;6006;49.696;8.662;2023-04-03T12:38:15;9.10;99.90
11894;DHT22;6006;49.696;8.662;2023-04-03T12:40:48;8.80;99.90
11894;DHT22;6006;49.696;8.662;2023-04-03T12:43:38;8.10;99.90
11894;DHT22;6006;49.696;8.662;2023-04-03T12:46:12;7.80;99.90
11894;DHT22;6006;49.696;8.662;2023-04-03T12:48:49;8.70;99.90
11894;DHT22;6006;49.696;8.662;2023-04-03T12:51:19;10.10;99.90
11894;DHT22;6006;49.696;8.662;2023-04-03T12:53:47;10.30;99.90
11894;DHT22;6006;49.696;8.662;2023-04-03T12:56:20;10.80;99.90
11894;DHT22;6006;49.696;8.662;2023-04-03T12:58:47;11.30;99.90
11894;DHT22;6006;49.696;8.662;2023-04-03T13:01:16;12.40;99.90
11894;DHT22;6006;49.696;8.662;2023-04-03T13:03:47;12.60;99.90
11894;DHT22;6006;49.696;8.662;2023-04-03T13:06:17;12.40;99.90
11894;DHT22;6006;49.696;8.662;2023-04-03T13:08:52;12.30;99.90
11894;DHT22;6006;49.696;8.662;2023-04-03T13:11:20;12.60;99.90
11894;DHT22;6006;49.696;8.662;2023-04-03T13:13:55;13.60;99.90
11894;DHT22;6006;49.696;8.662;2023-04-03T13:16:22;13.50;99.90
11894;DHT22;6006;49.696;8.662;2023-04-03T13:18:53;12.40;99.90
11894;DHT22;6006;49.696;8.662;2023-04-03T13:21:22;12.30;99.90
11894;DHT22;6006;49.696;8.662;2023-04-03T13:23:54;12.40;99.90
11894;DHT22;6006;49.696;8.662;2023-04-03T13:26:24;11.50;99.90
11894;DHT22;6006;49.696;8.662;2023-04-03T13:28:52;10.30;99.90
11894;DHT22;6006;49.696;8.662;2023-04-03T13:31:23;9.70;99.90
11894;DHT22;6006;49.696;8.662;2023-04-03T13:33:57;10.30;99.90
11894;DHT22;6006;49.696;8.662;2023-04-03T13:36:27;11.10;99.90
11894;DHT22;6006;49.696;8.662;2023-04-03T13:39:03;11.50;99.90
11894;DHT22;6006;49.696;8.662;2023-04-03T13:41:33;12.10;99.90
11894;DHT22;6006;49.696;8.662;2023-04-03T13:44:23;12.00;99.90
11894;DHT22;6006;49.696;8.662;2023-04-03T13:46:53;12.00;99.90
11894;DHT22;6006;49.696;8.662;2023-04-03T13:49:29;12.70;99.90
11894;DHT22;6006;49.696;8.662;2023-04-03T13:51:57;12.80;99.90
11894;DHT22;6006;49.696;8.662;2023-04-03T13:54:29;12.80;99.90
11894;DHT22;6006;49.696;8.662;2023-04-03T13:56:58;12.70;99.90
11894;DHT22;6006;49.696;8.662;2023-04-03T13:59:30;12.30;99.90
11894;DHT22;6006;49.696;8.662;2023-04-03T14:02:13;11.80;99.90
11894;DHT22;6006;49.696;8.662;2023-04-03T14:04:52;11.50;99.90
11894;DHT22;6006;49.696;8.662;2023-04-03T14:07:22;11.50;99.90
11894;DHT22;6006;49.696;8.662;2023-04-03T14:09:50;11.30;99.90
11894;DHT22;6006;49.696;8.662;2023-04-03T14:12:24;11.90;99.90
11894;DHT22;6006;49.696;8.662;2023-04-03T14:14:52;12.20;99.90
11894;DHT22;6006;49.696;8.662;2023-04-03T14:17:21;12.30;99.90
11894;DHT22;6006;49.696;8.662;2023-04-03T14:19:50;12.30;99.90
11894;DHT22;6006;49.696;8.662;2023-04-03T14:22:20;11.50;99.90
11894;DHT22;6006;49.696;8.662;2023-04-03T14:24:49;10.70;99.90
11894;DHT22;6006;49.696;8.662;2023-04-03T14:27:19;10.20;99.90
11894;DHT22;6006;49.696;8.662;2023-04-03T14:29:48;10.40;99.90
11894;DHT22;6006;49.696;8.662;2023-04-03T14:32:17;10.80;99.90
11894;DHT22;6006;49.696;8.662;2023-04-03T14:34:44;10.80;99.90
11894;DHT22;6006;49.696;8.662;2023-04-03T14:37:15;10.80;99.90
11894;DHT22;6006;49.696;8.662;2023-04-03T14:39:44;11.20;99.90
11894;DHT22;6006;49.696;8.662;2023-04-03T14:42:16;11.40;99.90
11894;DHT22;6006;49.696;8.662;2023-04-03T14:44:43;11.70;99.90
11894;DHT22;6006;49.696;8.662;2023-04-03T14:47:11;11.70;99.90
11894;DHT22;6006;49.696;8.662;2023-04-03T14:49:39;11.50;99.90
11894;DHT22;6006;49.696;8.662;2023-04-03T14:52:09;11.20;99.90
11894;DHT22;6006;49.696;8.662;2023-04-03T14:54:43;11.60;99.90
11894;DHT22;6006;49.696;8.662;2023-04-03T14:57:12;11.80;99.90
11894;DHT22;6006;49.696;8.662;2023-04-03T14:59:40;11.40;99.90
11894;DHT22;6006;49.696;8.662;2023-04-03T15:02:24;10.80;99.90
11894;DHT22;6006;49.696;8.662;2023-04-03T15:04:51;10.70;99.90
11894;DHT22;6006;49.696;8.662;2023-04-03T15:07:18;11.20;99.90
11894;DHT22;6006;49.696;8.662;2023-04-03T15:09:46;11.40;99.90
11894;DHT22;6006;49.696;8.662;2023-04-03T15:12:13;11.40;99.90
11894;DHT22;6006;49.696;8.662;2023-04-03T15:14:40;11.50;99.90
11894;DHT22;6006;49.696;8.662;2023-04-03T15:17:12;11.10;99.90
11894;DHT22;6006;49.696;8.662;2023-04-03T15:19:40;10.70;99.90
11894;DHT22;6006;49.696;8.662;2023-04-03T15:22:08;10.70;99.90
11894;DHT22;6006;49.696;8.662;2023-04-03T15:24:39;11.10;99.90
11894;DHT22;6006;49.696;8.662;2023-04-03T15:27:07;11.00;99.90
11894;DHT22;6006;49.696;8.662;2023-04-03T15:29:34;10.90;99.90
11894;DHT22;6006;49.696;8.662;2023-04-03T15:32:01;10.80;99.90
11894;DHT22;6006;49.696;8.662;2023-04-03T15:34:28;10.50;99.90
11894;DHT22;6006;49.696;8.662;2023-04-03T15:36:55;10.70;99.90
11894;DHT22;6006;49.696;8.662;2023-04-03T15:39:22;11.00;99.90
11894;DHT22;6006;49.696;8.662;2023-04-03T15:41:49;10.80;99.90
11894;DHT22;6006;49.696;8.662;2023-04-03T15:44:18;10.80;99.90
11894;DHT22;6006;49.696;8.662;2023-04-03T15:46:47;10.90;99.90
11894;DHT22;6006;49.696;8.662;2023-04-03T15:49:14;10.90;99.90
11894;DHT22;6006;49.696;8.662;2023-04-03T15:51:41;10.90;99.90
11894;DHT22;6006;49.696;8.662;2023-04-03T15:54:08;10.60;99.90
11894;DHT22;6006;49.696;8.662;2023-04-03T15:56:35;10.20;99.90
11894;DHT22;6006;49.696;8.662;2023-04-03T15:59:01;10.20;99.90
11894;DHT22;6006;49.696;8.662;2023-04-03T16:01:31;10.10;99.90
11894;DHT22;6006;49.696;8.662;2023-04-03T16:03:58;10.10;99.90
11894;DHT22;6006;49.696;8.662;2023-04-03T16:06:24;9.90;99.90
11894;DHT22;6006;49.696;8.662;2023-04-03T16:08:55;9.70;99.90
11894;DHT22;6006;49.696;8.662;2023-04-03T16:11:23;9.70;99.90
11894;DHT22;6006;49.696;8.662;2023-04-03T16:13:50;9.60;99.90
11894;DHT22;6006;49.696;8.662;2023-04-03T16:16:17;9.70;99.90